Time;durP1;ratioP1;P1;durP2;ratioP2;P2;SDS_P1;SDS_P2;PMS_P1;PMS_P2;Temp;Humidity;BMP_temperature;BMP_pressure;BME280_temperature;BME280_humidity;BME280_pressure;Samples;Min_cycle;Max_cycle;Signal;HPM_P1;HPM_P2
2022/09/13 00:01:56;;;;;;;;;;;;;;;14.33;100.00;100321.59;5013488;28;20309;-85
2022/09/13 00:04:30;;;;;;;;;;;;;;;14.35;100.00;100318.53;5020937;28;19921;-83
2022/09/13 00:07:03;;;;;;;;;;;;;;;14.34;100.00;100317.75;5032395;28;19921;-82
2022/09/13 00:09:36;;;;;;;;;;;;;;;14.37;100.00;100319.06;5032275;28;20485;-85
2022/09/13 00:12:09;;;;;;;;;;;;;;;14.35;100.00;100311.16;5032141;28;19921;-84
2022/09/13 00:14:42;;;;;;;;;;;;;;;14.31;100.00;100310.16;5031955;28;19944;-84
2022/09/13 00:17:15;;;;;;;;;;;;;;;14.35;100.00;100308.41;5033163;28;19932;-85
2022/09/13 00:19:49;;;;;;;;;;;;;;;14.33;100.00;100298.91;5065205;28;19940;-84
2022/09/13 00:22:22;;;;;;;;;;;;;;;14.29;100.00;100296.81;5035793;28;19921;-83
2022/09/13 00:24:54;;;;;;;;;;;;;;;14.31;100.00;100301.13;5052178;28;20377;-84
2022/09/13 00:27:27;;;;;;;;;;;;;;;14.25;100.00;100295.81;5052074;28;19920;-84
2022/09/13 00:30:00;;;;;;;;;;;;;;;14.23;100.00;100298.03;5052085;28;19921;-84
2022/09/13 00:32:28;;;;;;;;;;;;;;;14.23;100.00;100294.50;5045336;28;19929;-84
2022/09/13 00:35:02;;;;;;;;;;;;;;;14.26;100.00;100291.13;5036780;28;19921;-84
2022/09/13 00:37:31;;;;;;;;;;;;;;;14.28;100.00;100297.13;5035586;28;19928;-85
2022/09/13 00:39:59;;;;;;;;;;;;;;;14.27;100.00;100288.09;5035794;28;19921;-84
2022/09/13 00:42:27;;;;;;;;;;;;;;;14.28;100.00;100286.97;5036080;28;19928;-84
2022/09/13 00:45:02;;;;;;;;;;;;;;;14.25;100.00;100279.38;5035341;28;19928;-84
2022/09/13 00:47:38;;;;;;;;;;;;;;;14.32;100.00;100281.69;5036704;28;19929;-84
2022/09/13 00:50:16;;;;;;;;;;;;;;;14.28;100.00;100272.47;5035670;28;19921;-83
2022/09/13 00:52:51;;;;;;;;;;;;;;;14.28;100.00;100267.00;5036849;28;19925;-84
2022/09/13 00:55:26;;;;;;;;;;;;;;;14.33;100.00;100261.38;5035786;28;19944;-83
2022/09/13 00:58:02;;;;;;;;;;;;;;;14.35;100.00;100261.06;5052793;28;19932;-83
2022/09/13 01:00:36;;;;;;;;;;;;;;;14.37;100.00;100256.88;5051399;28;19932;-83
2022/09/13 01:03:10;;;;;;;;;;;;;;;14.36;100.00;100249.81;5035540;28;19976;-85
2022/09/13 01:05:47;;;;;;;;;;;;;;;14.28;100.00;100245.91;5068111;28;19921;-83
2022/09/13 01:08:21;;;;;;;;;;;;;;;14.34;100.00;100240.31;5036438;28;19921;-82
2022/09/13 01:10:57;;;;;;;;;;;;;;;14.20;100.00;100240.41;5035845;28;19921;-82
2022/09/13 01:13:31;;;;;;;;;;;;;;;14.17;100.00;100247.31;5038953;28;19936;-81
2022/09/13 01:16:04;;;;;;;;;;;;;;;14.09;100.00;100235.19;5054811;28;20710;-80
2022/09/13 01:18:32;;;;;;;;;;;;;;;13.95;100.00;100229.81;5046787;28;19921;-81
2022/09/13 01:21:13;;;;;;;;;;;;;;;13.95;100.00;100229.00;5016357;28;20397;-81
2022/09/13 01:24:10;;;;;;;;;;;;;;;13.87;100.00;100225.09;5016690;28;19921;-80
2022/09/13 01:26:56;;;;;;;;;;;;;;;13.82;100.00;100230.69;4996518;28;19928;-81
2022/09/13 01:29:59;;;;;;;;;;;;;;;13.79;100.00;100231.31;5048584;28;19932;-79
2022/09/13 01:32:32;;;;;;;;;;;;;;;13.73;100.00;100227.91;5025063;28;19928;-80
2022/09/13 01:35:14;;;;;;;;;;;;;;;13.69;100.00;100242.53;5035478;28;19929;-80
2022/09/13 01:37:52;;;;;;;;;;;;;;;13.65;100.00;100239.59;5014794;28;19921;-79
2022/09/13 01:40:31;;;;;;;;;;;;;;;13.71;100.00;100241.09;5015541;28;20379;-81
2022/09/13 01:43:11;;;;;;;;;;;;;;;13.69;100.00;100237.06;5014088;28;19921;-79
2022/09/13 01:45:48;;;;;;;;;;;;;;;13.69;100.00;100226.13;5015016;28;19925;-80
2022/09/13 01:48:24;;;;;;;;;;;;;;;13.75;100.00;100217.47;5058286;28;20366;-80
2022/09/13 01:50:57;;;;;;;;;;;;;;;13.70;100.00;100205.84;5053909;28;20639;-79
2022/09/13 01:53:30;;;;;;;;;;;;;;;13.75;100.00;100211.19;5034400;28;20503;-80
2022/09/13 01:56:02;;;;;;;;;;;;;;;13.74;100.00;100212.31;5035236;28;20289;-79
2022/09/13 01:58:39;;;;;;;;;;;;;;;13.69;100.00;100218.72;5042169;28;19921;-81
2022/09/13 02:01:16;;;;;;;;;;;;;;;13.72;100.00;100209.09;5024469;28;20293;-81
2022/09/13 02:03:54;;;;;;;;;;;;;;;13.70;100.00;100211.31;5022903;28;19925;-82
2022/09/13 02:06:26;;;;;;;;;;;;;;;13.67;100.00;100201.00;5027659;28;19921;-81
2022/09/13 02:09:01;;;;;;;;;;;;;;;13.64;100.00;100196.16;5051854;28;19921;-80
2022/09/13 02:11:30;;;;;;;;;;;;;;;13.61;100.00;100197.59;5034794;28;19951;-81
2022/09/13 02:14:06;;;;;;;;;;;;;;;13.64;100.00;100188.75;5033832;28;19921;-80
2022/09/13 02:16:44;;;;;;;;;;;;;;;13.63;100.00;100176.22;5032179;28;19936;-80
2022/09/13 02:19:19;;;;;;;;;;;;;;;13.65;100.00;100171.25;5033932;28;19921;-79
2022/09/13 02:21:56;;;;;;;;;;;;;;;13.61;100.00;100162.06;5042572;28;19920;-79
2022/09/13 02:24:26;;;;;;;;;;;;;;;13.65;100.00;100164.97;5054061;28;19921;-79
2022/09/13 02:27:03;;;;;;;;;;;;;;;13.66;100.00;100161.94;5054077;28;19927;-79
2022/09/13 02:29:37;;;;;;;;;;;;;;;13.59;100.00;100153.38;5054466;28;19942;-80
2022/09/13 02:32:14;;;;;;;;;;;;;;;13.60;100.00;100144.84;5041215;28;19932;-79
2022/09/13 02:34:51;;;;;;;;;;;;;;;13.57;100.00;100152.88;5034492;28;19921;-80
2022/09/13 02:37:19;;;;;;;;;;;;;;;13.61;100.00;100142.91;5013287;28;20583;-79
2022/09/13 02:39:56;;;;;;;;;;;;;;;13.62;100.00;100147.28;5030364;28;19921;-78
2022/09/13 02:42:28;;;;;;;;;;;;;;;13.61;100.00;100140.19;5033634;28;20365;-80
2022/09/13 02:45:00;;;;;;;;;;;;;;;13.58;100.00;100154.47;5049798;28;19937;-79
2022/09/13 02:47:34;;;;;;;;;;;;;;;13.56;100.00;100163.00;5065528;28;19921;-79
2022/09/13 02:50:12;;;;;;;;;;;;;;;13.58;100.00;100154.47;5034818;28;19928;-79
2022/09/13 02:52:48;;;;;;;;;;;;;;;13.63;100.00;100148.06;5034236;28;20307;-79
2022/09/13 02:55:24;;;;;;;;;;;;;;;13.58;100.00;100146.28;5033882;28;20477;-80
2022/09/13 02:58:00;;;;;;;;;;;;;;;13.63;100.00;100134.41;5032897;28;19925;-79
2022/09/13 03:00:33;;;;;;;;;;;;;;;13.59;100.00;100121.34;5033498;28;19921;-79
2022/09/13 03:03:09;;;;;;;;;;;;;;;13.63;100.00;100112.53;5066195;28;20286;-79
2022/09/13 03:05:37;;;;;;;;;;;;;;;13.54;100.00;100117.97;5029879;28;20400;-80
2022/09/13 03:08:06;;;;;;;;;;;;;;;13.65;100.00;100119.28;5029305;28;19941;-80
2022/09/13 03:10:45;;;;;;;;;;;;;;;13.64;100.00;100106.75;5014198;28;19928;-79
2022/09/13 03:13:33;;;;;;;;;;;;;;;13.59;100.00;100104.97;5032400;28;19921;-79
2022/09/13 03:16:13;;;;;;;;;;;;;;;13.57;100.00;100095.44;5033022;28;19921;-81
2022/09/13 03:18:52;;;;;;;;;;;;;;;13.52;100.00;100104.59;5033796;28;19921;-81
2022/09/13 03:21:36;;;;;;;;;;;;;;;13.50;100.00;100103.31;5033517;28;19925;-79
2022/09/13 03:24:11;;;;;;;;;;;;;;;13.57;100.00;100109.91;5029533;28;19928;-79
2022/09/13 03:26:44;;;;;;;;;;;;;;;13.53;100.00;100108.94;5045819;28;19929;-78
2022/09/13 03:29:24;;;;;;;;;;;;;;;13.54;100.00;100107.81;5013073;28;19928;-80
2022/09/13 03:31:58;;;;;;;;;;;;;;;13.58;100.00;100099.81;5018753;28;19921;-80
2022/09/13 03:34:38;;;;;;;;;;;;;;;13.56;100.00;100100.13;5033593;28;19948;-79
2022/09/13 03:37:09;;;;;;;;;;;;;;;13.54;100.00;100091.41;5065742;28;19928;-80
2022/09/13 03:39:45;;;;;;;;;;;;;;;13.61;100.00;100096.44;5032676;28;19921;-79
2022/09/13 03:42:18;;;;;;;;;;;;;;;13.59;100.00;100091.28;5057146;28;19956;-80
2022/09/13 03:44:52;;;;;;;;;;;;;;;13.64;100.00;100090.34;5038803;28;19925;-80
2022/09/13 03:47:21;;;;;;;;;;;;;;;13.69;100.00;100090.19;5036479;28;19922;-79
2022/09/13 03:49:51;;;;;;;;;;;;;;;13.61;100.00;100085.50;5018429;28;19921;-80
2022/09/13 03:52:24;;;;;;;;;;;;;;;13.67;100.00;100077.97;5032795;28;19921;-81
2022/09/13 03:54:57;;;;;;;;;;;;;;;13.71;100.00;100085.25;5032774;28;19921;-81
2022/09/13 03:57:30;;;;;;;;;;;;;;;13.69;100.00;100079.25;5025566;28;19928;-80
2022/09/13 04:00:04;;;;;;;;;;;;;;;13.76;100.00;100073.34;5061636;28;19921;-80
2022/09/13 04:02:38;;;;;;;;;;;;;;;13.78;100.00;100076.56;5058252;28;19928;-79
2022/09/13 04:05:12;;;;;;;;;;;;;;;13.81;100.00;100073.22;5052496;28;19928;-81
2022/09/13 04:07:45;;;;;;;;;;;;;;;13.81;100.00;100078.69;5022522;28;19921;-80
2022/09/13 04:10:13;;;;;;;;;;;;;;;13.79;100.00;100064.50;5033066;28;20301;-81
2022/09/13 04:12:46;;;;;;;;;;;;;;;13.81;100.00;100075.13;5033252;28;20392;-80
2022/09/13 04:15:15;;;;;;;;;;;;;;;13.85;100.00;100071.44;5065655;28;19921;-80
2022/09/13 04:17:47;;;;;;;;;;;;;;;13.90;100.00;100076.75;5031883;28;19996;-80
2022/09/13 04:20:21;;;;;;;;;;;;;;;13.91;100.00;100080.31;5036569;28;20395;-80
2022/09/13 04:22:51;;;;;;;;;;;;;;;13.93;100.00;100067.94;5047436;28;19920;-80
2022/09/13 04:25:19;;;;;;;;;;;;;;;13.94;100.00;100080.47;5028402;28;19928;-82
2022/09/13 04:27:47;;;;;;;;;;;;;;;13.98;100.00;100075.19;5021830;28;19929;-80
2022/09/13 04:30:15;;;;;;;;;;;;;;;13.95;100.00;100071.16;5037852;28;19927;-81
2022/09/13 04:32:47;;;;;;;;;;;;;;;14.00;100.00;100063.91;5026819;28;19921;-81
2022/09/13 04:35:18;;;;;;;;;;;;;;;14.02;100.00;100062.47;5032851;28;19928;-81
2022/09/13 04:37:54;;;;;;;;;;;;;;;14.03;100.00;100069.56;5019965;28;19928;-81
2022/09/13 04:40:22;;;;;;;;;;;;;;;14.05;100.00;100067.31;5062070;28;19925;-81
2022/09/13 04:42:55;;;;;;;;;;;;;;;13.98;100.00;100066.97;5029008;28;19928;-79
2022/09/13 04:45:23;;;;;;;;;;;;;;;14.04;100.00;100062.97;5026967;28;19921;-82
2022/09/13 04:47:56;;;;;;;;;;;;;;;14.04;100.00;100067.63;5037831;28;19928;-81
2022/09/13 04:50:30;;;;;;;;;;;;;;;14.02;100.00;100067.97;5042541;28;19928;-82
2022/09/13 04:53:04;;;;;;;;;;;;;;;14.01;100.00;100065.53;5036090;28;19947;-79
2022/09/13 04:55:32;;;;;;;;;;;;;;;14.01;100.00;100062.81;5045958;28;20366;-81
2022/09/13 04:58:00;;;;;;;;;;;;;;;14.04;100.00;100062.16;5032558;28;19921;-80
2022/09/13 05:00:33;;;;;;;;;;;;;;;14.06;100.00;100063.47;5059042;28;19925;-79
2022/09/13 05:03:06;;;;;;;;;;;;;;;14.08;100.00;100060.41;5028459;28;19931;-80
2022/09/13 05:05:33;;;;;;;;;;;;;;;14.08;100.00;100063.94;5046495;28;19928;-80
2022/09/13 05:08:01;;;;;;;;;;;;;;;14.10;100.00;100061.69;5039015;28;19928;-80
2022/09/13 05:10:36;;;;;;;;;;;;;;;14.16;100.00;100061.56;5029822;28;19928;-80
2022/09/13 05:13:03;;;;;;;;;;;;;;;14.15;100.00;100057.19;5049148;28;19920;-79
2022/09/13 05:15:31;;;;;;;;;;;;;;;14.19;100.00;100061.69;5038472;28;19928;-80
2022/09/13 05:18:04;;;;;;;;;;;;;;;14.20;100.00;100063.31;5021214;28;19929;-79
2022/09/13 05:20:32;;;;;;;;;;;;;;;14.21;100.00;100075.06;5054631;28;20570;-79
2022/09/13 05:23:05;;;;;;;;;;;;;;;14.18;100.00;100067.50;5031442;28;19936;-80
2022/09/13 05:25:32;;;;;;;;;;;;;;;14.23;100.00;100081.03;5068232;28;19921;-81
2022/09/13 05:28:06;;;;;;;;;;;;;;;14.21;100.00;100072.31;5042860;28;19920;-80
2022/09/13 05:30:34;;;;;;;;;;;;;;;14.25;100.00;100076.03;5035077;28;19921;-80
2022/09/13 05:33:02;;;;;;;;;;;;;;;14.23;100.00;100079.09;5031519;28;19921;-82
2022/09/13 05:35:30;;;;;;;;;;;;;;;14.23;100.00;100083.78;5049780;28;19928;-81
2022/09/13 05:38:00;;;;;;;;;;;;;;;14.21;100.00;100094.22;5029215;28;19921;-82
2022/09/13 05:40:28;;;;;;;;;;;;;;;14.24;100.00;100088.13;5029233;28;19929;-83
2022/09/13 05:43:01;;;;;;;;;;;;;;;14.26;100.00;100085.88;5032863;28;19921;-78
2022/09/13 05:45:31;;;;;;;;;;;;;;;14.26;100.00;100092.13;5041714;28;20277;-79
2022/09/13 05:48:04;;;;;;;;;;;;;;;14.21;100.00;100095.03;5029964;28;19933;-80
2022/09/13 05:50:37;;;;;;;;;;;;;;;14.22;100.00;100093.09;5033123;28;20381;-80
2022/09/13 05:53:10;;;;;;;;;;;;;;;14.25;100.00;100086.97;5038286;28;19920;-80
2022/09/13 05:55:42;;;;;;;;;;;;;;;14.23;100.00;100083.78;5060823;28;19921;-78
2022/09/13 05:58:15;;;;;;;;;;;;;;;14.31;100.00;100084.91;5032242;28;19921;-79
2022/09/13 06:00:54;;;;;;;;;;;;;;;14.23;100.00;100076.34;5032140;28;19924;-80
2022/09/13 06:03:22;;;;;;;;;;;;;;;14.27;100.00;100073.81;5031871;28;19928;-80
2022/09/13 06:05:55;;;;;;;;;;;;;;;14.29;100.00;100080.56;5042340;28;19932;-80
2022/09/13 06:08:29;;;;;;;;;;;;;;;14.29;100.00;100077.00;5066301;28;20250;-81
2022/09/13 06:10:57;;;;;;;;;;;;;;;14.31;100.00;100080.25;5046586;28;19921;-81
2022/09/13 06:13:31;;;;;;;;;;;;;;;14.31;100.00;100085.72;5029951;28;20722;-80
2022/09/13 06:16:06;;;;;;;;;;;;;;;14.43;100.00;100082.34;5024933;28;19922;-79
2022/09/13 06:18:39;;;;;;;;;;;;;;;14.44;100.00;100079.31;5027959;28;19921;-81
2022/09/13 06:21:08;;;;;;;;;;;;;;;14.57;100.00;100087.66;5072032;28;20396;-81
2022/09/13 06:23:41;;;;;;;;;;;;;;;14.53;100.00;100083.97;5033609;28;19928;-83
2022/09/13 06:26:15;;;;;;;;;;;;;;;14.62;100.00;100079.31;5057939;28;19928;-85
2022/09/13 06:28:48;;;;;;;;;;;;;;;14.62;100.00;100082.03;5018587;28;20389;-85
2022/09/13 06:31:23;;;;;;;;;;;;;;;14.59;100.00;100093.63;5022016;28;19921;-85
2022/09/13 06:33:57;;;;;;;;;;;;;;;14.59;100.00;100094.44;5036148;28;19932;-83
2022/09/13 06:36:30;;;;;;;;;;;;;;;14.56;100.00;100086.06;5055605;28;19921;-85
2022/09/13 06:39:05;;;;;;;;;;;;;;;14.57;100.00;100091.22;5055801;28;19932;-84
2022/09/13 06:41:38;;;;;;;;;;;;;;;14.67;100.00;100083.88;5058493;28;19924;-84
2022/09/13 06:44:11;;;;;;;;;;;;;;;14.72;100.00;100086.41;5033155;28;19929;-84
2022/09/13 06:46:46;;;;;;;;;;;;;;;14.75;100.00;100083.06;5026081;28;19921;-83
2022/09/13 06:49:18;;;;;;;;;;;;;;;14.81;100.00;100087.22;5025228;28;19932;-84
2022/09/13 06:51:46;;;;;;;;;;;;;;;14.86;100.00;100089.00;5017249;28;19925;-84
2022/09/13 06:54:14;;;;;;;;;;;;;;;14.94;100.00;100083.53;5035767;28;19920;-83
2022/09/13 06:56:42;;;;;;;;;;;;;;;15.04;100.00;100084.31;5019286;28;20366;-84
2022/09/13 06:59:15;;;;;;;;;;;;;;;15.09;100.00;100087.69;5029029;28;19928;-81
2022/09/13 07:01:43;;;;;;;;;;;;;;;15.11;100.00;100090.13;5043091;28;19921;-84
2022/09/13 07:04:18;;;;;;;;;;;;;;;15.33;100.00;100077.31;5035844;28;19925;-84
2022/09/13 07:06:51;;;;;;;;;;;;;;;15.26;100.00;100075.88;5042918;28;19925;-83
2022/09/13 07:09:24;;;;;;;;;;;;;;;15.27;100.00;100080.25;5029070;28;19928;-85
2022/09/13 07:11:57;;;;;;;;;;;;;;;15.23;100.00;100078.47;5061279;28;19927;-84
2022/09/13 07:14:30;;;;;;;;;;;;;;;15.30;100.00;100078.75;5012641;28;20360;-82
2022/09/13 07:17:03;;;;;;;;;;;;;;;15.33;100.00;100078.13;5022690;28;19936;-85
2022/09/13 07:19:32;;;;;;;;;;;;;;;15.38;100.00;100085.38;5007579;28;19929;-83
2022/09/13 07:22:05;;;;;;;;;;;;;;;15.40;100.00;100081.16;5006712;28;19936;-80
2022/09/13 07:24:38;;;;;;;;;;;;;;;15.61;100.00;100092.22;5001847;28;19928;-81
2022/09/13 07:27:13;;;;;;;;;;;;;;;15.64;100.00;100101.75;5002612;28;19936;-84
2022/09/13 07:29:46;;;;;;;;;;;;;;;15.81;100.00;100096.22;5009991;28;21811;-81
2022/09/13 07:32:19;;;;;;;;;;;;;;;15.87;100.00;100104.25;5041128;28;20372;-84
2022/09/13 07:35:01;;;;;;;;;;;;;;;15.85;100.00;100110.06;5009820;28;19929;-83
2022/09/13 07:37:41;;;;;;;;;;;;;;;16.03;100.00;100099.03;5017413;28;19932;-81
2022/09/13 07:40:14;;;;;;;;;;;;;;;16.09;100.00;100095.75;5015992;28;19929;-80
2022/09/13 07:42:47;;;;;;;;;;;;;;;16.09;100.00;100097.72;5013518;28;19936;-83
2022/09/13 07:45:20;;;;;;;;;;;;;;;16.07;100.00;100106.25;5012791;28;19936;-79
2022/09/13 07:47:52;;;;;;;;;;;;;;;15.94;100.00;100096.34;5024736;28;19929;-79
2022/09/13 07:50:26;;;;;;;;;;;;;;;15.86;100.00;100111.69;5007255;28;20699;-83
2022/09/13 07:52:59;;;;;;;;;;;;;;;15.88;100.00;100108.63;5020295;28;19925;-78
2022/09/13 07:55:32;;;;;;;;;;;;;;;15.88;100.00;100108.63;5015597;28;19929;-82
2022/09/13 07:58:00;;;;;;;;;;;;;;;16.03;100.00;100102.56;5008235;28;19921;-80
2022/09/13 08:00:33;;;;;;;;;;;;;;;16.15;100.00;100105.41;5009171;28;19928;-77
2022/09/13 08:03:07;;;;;;;;;;;;;;;16.39;100.00;100108.66;5010357;28;19951;-80
2022/09/13 08:05:39;;;;;;;;;;;;;;;16.48;100.00;100112.97;5018592;28;19929;-80
2022/09/13 08:08:07;;;;;;;;;;;;;;;16.61;100.00;100122.09;5035717;28;19929;-79
2022/09/13 08:10:40;;;;;;;;;;;;;;;16.57;100.00;100115.66;5013293;28;19929;-82
2022/09/13 08:13:13;;;;;;;;;;;;;;;16.56;100.00;100127.78;5007180;28;19936;-80
2022/09/13 08:15:46;;;;;;;;;;;;;;;16.57;100.00;100118.41;5007951;28;19929;-81
2022/09/13 08:18:19;;;;;;;;;;;;;;;16.69;100.00;100127.84;5005663;28;19929;-81
2022/09/13 08:20:55;;;;;;;;;;;;;;;16.89;100.00;100129.00;5006841;28;19936;-79
2022/09/13 08:23:28;;;;;;;;;;;;;;;17.03;100.00;100114.97;5013693;28;20589;-80
2022/09/13 08:26:02;;;;;;;;;;;;;;;16.90;100.00;100122.38;5015168;28;19951;-83
2022/09/13 08:28:36;;;;;;;;;;;;;;;16.97;100.00;100114.38;5012312;28;19929;-80
2022/09/13 08:31:09;;;;;;;;;;;;;;;16.95;100.00;100122.97;5007416;28;20698;-80
2022/09/13 08:33:43;;;;;;;;;;;;;;;16.81;100.00;100123.22;5011751;28;19932;-79
2022/09/13 08:36:17;;;;;;;;;;;;;;;16.76;100.00;100131.66;5027263;28;21326;-81
2022/09/13 08:38:50;;;;;;;;;;;;;;;16.83;100.00;100133.88;5000414;28;20440;-82
2022/09/13 08:41:33;;;;;;;;;;;;;;;16.83;100.00;100128.38;4998550;28;19967;-83
2022/09/13 08:44:09;;;;;;;;;;;;;;;16.92;100.00;100117.38;4998565;28;19929;-81
2022/09/13 08:46:44;;;;;;;;;;;;;;;16.89;100.00;100120.75;4998219;28;19936;-81
2022/09/13 08:49:19;;;;;;;;;;;;;;;16.95;100.00;100124.94;4997616;28;20293;-80
2022/09/13 08:51:55;;;;;;;;;;;;;;;17.05;100.00;100126.47;5034443;28;19964;-81
2022/09/13 08:54:28;;;;;;;;;;;;;;;17.12;100.00;100141.28;5006501;28;19936;-82
2022/09/13 08:56:59;;;;;;;;;;;;;;;17.04;100.00;100144.91;5001977;28;19928;-82
2022/09/13 08:59:40;;;;;;;;;;;;;;;17.02;100.00;100141.69;5036935;28;19936;-82
2022/09/13 09:02:20;;;;;;;;;;;;;;;17.02;100.00;100143.63;5005902;28;20040;-84
2022/09/13 09:04:57;;;;;;;;;;;;;;;17.17;100.00;100140.25;5004341;28;19929;-83
2022/09/13 09:07:27;;;;;;;;;;;;;;;17.09;100.00;100141.13;5014682;28;19937;-83
2022/09/13 09:10:02;;;;;;;;;;;;;;;17.09;100.00;100147.44;5002804;28;20296;-82
2022/09/13 09:12:39;;;;;;;;;;;;;;;17.12;100.00;100141.28;5017138;28;21180;-81
2022/09/13 09:15:14;;;;;;;;;;;;;;;17.19;100.00;100145.41;5019508;28;19925;-80
2022/09/13 09:17:49;;;;;;;;;;;;;;;17.12;100.00;100141.28;5020005;28;19921;-83
2022/09/13 09:20:22;;;;;;;;;;;;;;;17.22;100.00;100150.22;5016231;28;20557;-82
2022/09/13 09:22:59;;;;;;;;;;;;;;;17.30;100.00;100143.84;5049876;28;19929;-84
2022/09/13 09:25:27;;;;;;;;;;;;;;;17.23;100.00;100138.09;5024152;28;20382;-80
2022/09/13 09:27:55;;;;;;;;;;;;;;;17.13;100.00;100139.31;5020737;28;19936;-83
2022/09/13 09:30:23;;;;;;;;;;;;;;;17.06;100.00;100142.63;5014700;28;20606;-84
2022/09/13 09:33:03;;;;;;;;;;;;;;;17.08;100.00;100143.09;5017610;28;19937;-83
2022/09/13 09:35:39;;;;;;;;;;;;;;;17.05;100.00;100141.00;5048525;28;19929;-80
2022/09/13 09:38:32;;;;;;;;;;;;;;;17.09;100.00;100136.44;5020081;28;19929;-82
2022/09/13 09:41:06;;;;;;;;;;;;;;;17.14;100.00;100140.94;5014786;28;19925;-79
2022/09/13 09:43:41;;;;;;;;;;;;;;;17.09;100.00;100143.88;5017764;28;19936;-80
2022/09/13 09:46:16;;;;;;;;;;;;;;;17.09;100.00;100149.38;5024985;28;19925;-80
2022/09/13 09:48:51;;;;;;;;;;;;;;;17.21;100.00;100156.88;5012987;28;19944;-81
2022/09/13 09:51:22;;;;;;;;;;;;;;;17.23;100.00;100158.13;5010005;28;19936;-81
2022/09/13 09:54:00;;;;;;;;;;;;;;;17.26;100.00;100156.66;5014444;28;19925;-84
2022/09/13 09:56:35;;;;;;;;;;;;;;;17.19;100.00;100161.91;5015206;28;19940;-86
2022/09/13 09:59:24;;;;;;;;;;;;;;;17.20;100.00;100166.28;5045410;28;20952;-81
2022/09/13 10:01:56;;;;;;;;;;;;;;;17.17;100.00;100171.28;5011502;28;19921;-79
2022/09/13 10:04:25;;;;;;;;;;;;;;;17.47;100.00;100159.38;5047187;28;20317;-84
2022/09/13 10:07:18;;;;;;;;;;;;;;;17.61;100.00;100156.34;5014034;28;19936;-84
2022/09/13 10:09:57;;;;;;;;;;;;;;;17.88;100.00;100152.13;5010336;28;19929;-82
2022/09/13 10:12:32;;;;;;;;;;;;;;;18.02;100.00;100158.13;5013363;28;19929;-84
2022/09/13 10:15:05;;;;;;;;;;;;;;;18.08;100.00;100149.66;4987449;28;19929;-85
2022/09/13 10:17:38;;;;;;;;;;;;;;;17.74;100.00;100146.94;5015953;28;19936;-81
2022/09/13 10:20:25;;;;;;;;;;;;;;;17.49;100.00;100140.59;5018282;28;19929;-81
2022/09/13 10:23:09;;;;;;;;;;;;;;;17.28;100.00;100141.44;5012154;28;19929;-80
2022/09/13 10:25:44;;;;;;;;;;;;;;;17.34;100.00;100125.53;5010698;28;19940;-81
2022/09/13 10:28:15;;;;;;;;;;;;;;;17.32;100.00;100138.81;5043164;28;20298;-83
2022/09/13 10:30:49;;;;;;;;;;;;;;;17.43;100.00;100134.50;5014924;28;20614;-80
2022/09/13 10:33:23;;;;;;;;;;;;;;;17.51;100.00;100138.28;5043199;28;19929;-85
2022/09/13 10:35:54;;;;;;;;;;;;;;;17.59;100.00;100128.34;5047810;28;19929;-81
2022/09/13 10:38:25;;;;;;;;;;;;;;;17.76;100.00;100128.16;5044132;28;20848;-79
2022/09/13 10:41:01;;;;;;;;;;;;;;;17.74;100.00;100135.94;5015841;28;19929;-82
2022/09/13 10:43:34;;;;;;;;;;;;;;;17.67;100.00;100143.94;5014890;28;19928;-80
2022/09/13 10:46:11;;;;;;;;;;;;;;;17.78;100.00;100130.56;5006198;28;19928;-80
2022/09/13 10:48:45;;;;;;;;;;;;;;;17.84;100.00;100123.66;4997396;28;19936;-82
2022/09/13 10:51:21;;;;;;;;;;;;;;;17.83;100.00;100130.34;4997248;28;19929;-87
2022/09/13 10:54:07;;;;;;;;;;;;;;;17.91;100.00;100134.13;4996368;28;19936;-80
2022/09/13 10:56:36;;;;;;;;;;;;;;;17.90;100.00;100136.06;4998487;28;21361;-83
2022/09/13 10:59:19;;;;;;;;;;;;;;;17.86;100.00;100132.41;5000450;28;20183;-82
2022/09/13 11:01:53;;;;;;;;;;;;;;;17.99;100.00;100136.81;5000874;28;20140;-81
2022/09/13 11:04:40;;;;;;;;;;;;;;;18.10;100.00;100128.06;4999414;28;19929;-82
2022/09/13 11:07:21;;;;;;;;;;;;;;;17.89;100.00;100130.91;5000549;28;19944;-82
2022/09/13 11:09:54;;;;;;;;;;;;;;;17.69;100.00;100119.66;5008082;28;19955;-81
2022/09/13 11:12:31;;;;;;;;;;;;;;;17.54;100.00;100123.03;4998011;28;19936;-82
2022/09/13 11:15:03;;;;;;;;;;;;;;;17.67;100.00;100125.47;5003894;28;19956;-82
2022/09/13 11:17:53;;;;;;;;;;;;;;;17.79;100.00;100121.16;5029528;28;19936;-85
2022/09/13 11:20:32;;;;;;;;;;;;;;;17.99;100.00;100124.97;4998424;28;20373;-83
2022/09/13 11:23:30;;;;;;;;;;;;;;;18.34;100.00;100111.53;4999153;28;19936;-83
2022/09/13 11:26:08;;;;;;;;;;;;;;;18.55;100.00;100107.00;5001563;28;20161;-82
2022/09/13 11:28:43;;;;;;;;;;;;;;;18.74;100.00;100106.38;5009095;28;19929;-80
2022/09/13 11:31:21;;;;;;;;;;;;;;;18.72;100.00;100103.19;5011620;28;19925;-84
2022/09/13 11:33:53;;;;;;;;;;;;;;;18.70;100.00;100117.31;5035515;28;19936;-83
2022/09/13 11:36:49;;;;;;;;;;;;;;;18.72;100.00;100105.94;5002033;28;20005;-84
2022/09/13 11:39:22;;;;;;;;;;;;;;;18.78;100.00;100099.03;5009424;28;20385;-84
2022/09/13 11:41:55;;;;;;;;;;;;;;;18.82;100.00;100103.50;4998155;28;19925;-82
2022/09/13 11:44:44;;;;;;;;;;;;;;;18.88;100.00;100103.28;5028555;28;19929;-82
2022/09/13 11:47:16;;;;;;;;;;;;;;;18.86;100.00;100109.94;5002585;28;20020;-79
2022/09/13 11:50:02;;;;;;;;;;;;;;;18.86;100.00;100104.41;5005334;28;19929;-81
2022/09/13 11:52:36;;;;;;;;;;;;;;;18.94;100.00;100091.66;5008739;28;19951;-81
2022/09/13 11:55:14;;;;;;;;;;;;;;;19.10;100.00;100097.22;5009232;28;19929;-86
2022/09/13 11:57:49;;;;;;;;;;;;;;;19.17;100.00;100102.13;5005906;28;19921;-82
2022/09/13 12:00:24;;;;;;;;;;;;;;;19.20;100.00;100098.66;5002956;28;19932;-83
2022/09/13 12:03:01;;;;;;;;;;;;;;;18.90;100.00;100084.44;5008166;28;20479;-81
2022/09/13 12:05:36;;;;;;;;;;;;;;;18.73;100.00;100089.06;5008130;28;19929;-83
2022/09/13 12:08:06;;;;;;;;;;;;;;;18.52;100.00;100101.06;5005017;28;19928;-79
2022/09/13 12:10:38;;;;;;;;;;;;;;;18.29;100.00;100095.25;5040319;28;22035;-83
2022/09/13 12:13:09;;;;;;;;;;;;;;;18.21;100.00;100100.88;5041367;28;19921;-84
2022/09/13 12:15:39;;;;;;;;;;;;;;;18.09;100.00;100091.50;4984299;28;19929;-83
2022/09/13 12:18:14;;;;;;;;;;;;;;;18.07;100.00;100090.22;5008696;28;19932;-84
2022/09/13 12:20:46;;;;;;;;;;;;;;;18.19;100.00;100092.97;5053562;28;19921;-82
2022/09/13 12:23:16;;;;;;;;;;;;;;;18.31;100.00;100098.47;5012633;28;19929;-83
2022/09/13 12:25:48;;;;;;;;;;;;;;;18.49;100.00;100096.25;5013275;28;20400;-85
2022/09/13 12:28:19;;;;;;;;;;;;;;;18.57;100.00;100082.69;5022843;28;19928;-86
2022/09/13 12:30:56;;;;;;;;;;;;;;;18.65;100.00;100096.31;5026719;28;19936;-86
2022/09/13 12:33:29;;;;;;;;;;;;;;;18.79;100.00;100089.63;5025464;28;19924;-86
2022/09/13 12:36:16;;;;;;;;;;;;;;;18.92;100.00;100087.63;4999878;28;19929;-86
2022/09/13 12:38:57;;;;;;;;;;;;;;;18.96;100.00;100097.63;5035001;28;19929;-85
2022/09/13 12:41:35;;;;;;;;;;;;;;;18.91;100.00;100103.38;5008119;28;19929;-85
2022/09/13 12:44:15;;;;;;;;;;;;;;;18.66;100.00;100094.38;5000196;28;19928;-82
2022/09/13 12:46:57;;;;;;;;;;;;;;;18.56;100.00;100092.09;4999391;28;19929;-84
2022/09/13 12:49:35;;;;;;;;;;;;;;;18.45;100.00;100109.13;5002316;28;20978;-84
2022/09/13 12:52:21;;;;;;;;;;;;;;;18.54;100.00;100097.94;5008345;28;19936;-83
2022/09/13 12:55:17;;;;;;;;;;;;;;;18.49;100.00;100104.50;4998045;28;19929;-84
2022/09/13 12:57:54;;;;;;;;;;;;;;;18.50;100.00;100102.56;5007479;28;20456;-82
2022/09/13 13:00:29;;;;;;;;;;;;;;;18.75;100.00;100108.00;5018238;28;19924;-82
2022/09/13 13:03:10;;;;;;;;;;;;;;;18.66;100.00;100106.19;5003877;28;20898;-83
2022/09/13 13:05:39;;;;;;;;;;;;;;;18.79;100.00;100108.91;5003713;28;19928;-84